Hg 306 Tobis — OUPS — position and weather

sailwx.info

Track history (hours):
 
Tides and Currents Weather Stations Pressure Air Temp Water Temp Dewpoint Dewpoint Depression Visibility Wind Speed Wind Dir Waves Ship Positions

Hg 306 Tobis

Last reported at 2017-May-23 23:50 UTC. Time now 2017-May-24 13:30 UTC.
Position N 58°57' E 004°49'.

Length 40 m; draft 6.4 m.

Type: Fishing. MMSI: 219013001.

Date/timePositionNaut miles runAvg speedWind from/ knotsBaromVisibWave heightAir tempDewpointWater temp
2017-May-23 23:50N 58°57' E 004°49'3 9.9
2017-May-23 23:30N 58°55' E 004°53'510.2
2017-May-23 23:00N 58°51' E 004°59'510.6
2017-May-23 22:30N 58°47' E 005°06'511.0
2017-May-23 22:00N 58°43' E 005°13'611.0
2017-May-23 21:30N 58°39' E 005°20'510.7
2017-May-23 21:00N 58°35' E 005°27'910.8
2017-May-23 20:10N 58°28' E 005°39'210.8
2017-May-23 19:57N 58°27' E 005°42'510.3
2017-May-23 19:30N 58°23' E 005°48'1110.1
2017-May-23 18:24N 58°15' E 006°03'510.1
2017-May-23 17:57N 58°12' E 006°09'510.2
2017-May-23 17:30N 58°09' E 006°15'610.8
2017-May-23 17:00N 58°05' E 006°23'611.6
2017-May-23 16:30N 58°01' E 006°30'611.8
2017-May-23 16:00N 57°57' E 006°38'611.8
2017-May-23 15:29N 57°53' E 006°47'611.5
2017-May-23 15:00N 57°49' E 006°54'23 1.1
2017-May-22 17:58N 57°26' E 006°54'2111.3
2017-May-22 16:09N 57°34' E 006°18'211.3
2017-May-22 15:59N 57°35' E 006°15'  
2017-May-15 09:27N 57°50' E 007°03'510.1
2017-May-15 09:00N 57°53' E 006°56'510.6
2017-May-15 08:30N 57°57' E 006°49'510.9
2017-May-15 08:00N 58°01' E 006°41'611.2
2017-May-15 07:30N 58°04' E 006°33'611.1
2017-May-15 07:00N 58°08' E 006°25'510.3
2017-May-15 06:29N 58°11' E 006°18'1210.9
2017-May-15 05:22N 58°19' E 006°00'411.6
2017-May-15 05:00N 58°22' E 005°54'711.5
2017-May-15 04:26N 58°27' E 005°45'511.1
2017-May-15 03:59N 58°31' E 005°39'510.5
2017-May-15 03:30N 58°34' E 005°33'611.2
2017-May-15 03:00N 58°38' E 005°26'611.2
2017-May-15 02:30N 58°43' E 005°19'510.6
2017-May-15 02:00N 58°47' E 005°12'611.2
2017-May-15 01:30N 58°51' E 005°04'611.5
2017-May-15 01:00N 58°55' E 004°57'  
Track history (hours):
 
Tides and Currents Weather Stations Pressure Air Temp Water Temp Dewpoint Dewpoint Depression Visibility Wind Speed Wind Dir Waves Ship Positions

Hg 306 Tobis

Last reported at 2017-May-23 23:50 UTC. Time now 2017-May-24 13:30 UTC.
Position N 58°57' E 004°49'.

Length 40 m; draft 6.4 m.

Type: Fishing. MMSI: 219013001.

Date/timePositionNaut miles runAvg speedWind from/ knotsBaromVisibWave heightAir tempDewpointWater temp
2017-May-23 23:50N 58°57' E 004°49'3 9.9
2017-May-23 23:30N 58°55' E 004°53'510.2
2017-May-23 23:00N 58°51' E 004°59'510.6
2017-May-23 22:30N 58°47' E 005°06'511.0
2017-May-23 22:00N 58°43' E 005°13'611.0
2017-May-23 21:30N 58°39' E 005°20'510.7
2017-May-23 21:00N 58°35' E 005°27'910.8
2017-May-23 20:10N 58°28' E 005°39'210.8
2017-May-23 19:57N 58°27' E 005°42'510.3
2017-May-23 19:30N 58°23' E 005°48'1110.1
2017-May-23 18:24N 58°15' E 006°03'510.1
2017-May-23 17:57N 58°12' E 006°09'510.2
2017-May-23 17:30N 58°09' E 006°15'610.8
2017-May-23 17:00N 58°05' E 006°23'611.6
2017-May-23 16:30N 58°01' E 006°30'611.8
2017-May-23 16:00N 57°57' E 006°38'611.8
2017-May-23 15:29N 57°53' E 006°47'611.5
2017-May-23 15:00N 57°49' E 006°54'23 1.1
2017-May-22 17:58N 57°26' E 006°54'2111.3
2017-May-22 16:09N 57°34' E 006°18'211.3
2017-May-22 15:59N 57°35' E 006°15'  
2017-May-15 09:27N 57°50' E 007°03'510.1
2017-May-15 09:00N 57°53' E 006°56'510.6
2017-May-15 08:30N 57°57' E 006°49'510.9
2017-May-15 08:00N 58°01' E 006°41'611.2
2017-May-15 07:30N 58°04' E 006°33'611.1
2017-May-15 07:00N 58°08' E 006°25'510.3
2017-May-15 06:29N 58°11' E 006°18'1210.9
2017-May-15 05:22N 58°19' E 006°00'411.6
2017-May-15 05:00N 58°22' E 005°54'711.5
2017-May-15 04:26N 58°27' E 005°45'511.1
2017-May-15 03:59N 58°31' E 005°39'510.5
2017-May-15 03:30N 58°34' E 005°33'611.2
2017-May-15 03:00N 58°38' E 005°26'611.2
2017-May-15 02:30N 58°43' E 005°19'510.6
2017-May-15 02:00N 58°47' E 005°12'611.2
2017-May-15 01:30N 58°51' E 005°04'611.5
2017-May-15 01:00N 58°55' E 004°57'  

Dump ship's entire track history